Time;durP1;ratioP1;P1;durP2;ratioP2;P2;SDS_P1;SDS_P2;PMS_P1;PMS_P2;Temp;Humidity;BMP_temperature;BMP_pressure;BME280_temperature;BME280_humidity;BME280_pressure;Samples;Min_cycle;Max_cycle;Signal;HPM_P1;HPM_P2
2023/01/09 00:01:27;;;;;;;20.70;8.98;;;;;;;;;;4995073;28;20037;-56
2023/01/09 00:03:52;;;;;;;20.65;9.68;;;;;;;;;;4999447;28;20030;-58
2023/01/09 00:06:17;;;;;;;19.33;9.23;;;;;;;;;;4989971;28;20433;-56
2023/01/09 00:08:42;;;;;;;17.67;8.85;;;;;;;;;;4984103;28;20637;-57
2023/01/09 00:11:08;;;;;;;17.90;9.23;;;;;;;;;;4986335;28;20109;-56
2023/01/09 00:13:33;;;;;;;19.07;9.20;;;;;;;;;;4985647;28;20391;-56
2023/01/09 00:15:58;;;;;;;20.52;9.40;;;;;;;;;;4998077;28;21024;-60
2023/01/09 00:18:23;;;;;;;19.03;8.77;;;;;;;;;;4986171;28;20057;-57
2023/01/09 00:20:49;;;;;;;20.43;9.27;;;;;;;;;;5001404;28;20076;-57
2023/01/09 00:23:14;;;;;;;19.77;9.67;;;;;;;;;;4991647;28;20141;-56
2023/01/09 00:25:39;;;;;;;19.30;9.02;;;;;;;;;;4984102;28;20034;-62
2023/01/09 00:28:04;;;;;;;18.75;9.05;;;;;;;;;;4992458;28;20077;-60
2023/01/09 00:30:30;;;;;;;19.33;9.38;;;;;;;;;;4988198;28;20029;-58
2023/01/09 00:32:55;;;;;;;19.88;9.00;;;;;;;;;;4989116;28;20096;-59
2023/01/09 00:35:21;;;;;;;17.37;7.83;;;;;;;;;;4987934;28;20026;-59
2023/01/09 00:37:46;;;;;;;21.50;9.60;;;;;;;;;;4990776;28;20018;-57
2023/01/09 00:40:13;;;;;;;24.53;10.20;;;;;;;;;;4987999;28;20403;-59
2023/01/09 00:42:38;;;;;;;21.95;9.88;;;;;;;;;;4987619;28;20451;-57
2023/01/09 00:45:07;;;;;;;22.60;9.90;;;;;;;;;;4986571;28;20049;-58
2023/01/09 00:47:35;;;;;;;21.50;10.20;;;;;;;;;;4988564;28;20061;-56
2023/01/09 00:50:09;;;;;;;22.00;9.68;;;;;;;;;;4993637;28;20053;-56
2023/01/09 00:52:36;;;;;;;21.17;9.45;;;;;;;;;;4983138;28;20030;-56
2023/01/09 00:55:01;;;;;;;22.00;9.38;;;;;;;;;;4992162;28;20065;-59
2023/01/09 00:57:26;;;;;;;21.23;9.07;;;;;;;;;;4993301;28;20527;-57
2023/01/09 00:59:52;;;;;;;22.92;10.43;;;;;;;;;;4992492;28;20412;-57
2023/01/09 01:02:17;;;;;;;20.98;9.55;;;;;;;;;;4996774;28;20077;-58
2023/01/09 01:07:38;;;;;;;20.02;9.20;;;;;;;;;;5005785;28;20179;-58
2023/01/09 01:10:11;;;;;;;23.27;10.55;;;;;;;;;;5003474;28;20022;-58
2023/01/09 01:12:37;;;;;;;22.67;9.82;;;;;;;;;;5007548;28;20072;-58
2023/01/09 01:15:02;;;;;;;21.42;9.85;;;;;;;;;;5001472;28;20022;-57
2023/01/09 01:17:27;;;;;;;21.63;9.60;;;;;;;;;;5012793;28;20024;-63
2023/01/09 01:19:52;;;;;;;21.40;9.98;;;;;;;;;;4988931;28;20467;-57
2023/01/09 01:22:18;;;;;;;21.15;9.55;;;;;;;;;;4988021;28;20031;-58
2023/01/09 01:24:43;;;;;;;21.35;10.25;;;;;;;;;;4987125;28;20039;-56
2023/01/09 01:27:08;;;;;;;22.57;10.33;;;;;;;;;;4987054;28;20454;-59
2023/01/09 01:29:33;;;;;;;19.90;9.53;;;;;;;;;;4989916;28;20064;-58
2023/01/09 01:31:58;;;;;;;20.77;9.25;;;;;;;;;;4988747;28;20031;-57
2023/01/09 01:34:23;;;;;;;20.27;9.13;;;;;;;;;;4983459;28;20015;-56
2023/01/09 01:36:49;;;;;;;18.90;9.40;;;;;;;;;;4994922;28;20017;-57
2023/01/09 01:39:15;;;;;;;21.50;10.10;;;;;;;;;;4988239;28;20478;-57
2023/01/09 01:41:40;;;;;;;19.63;8.88;;;;;;;;;;4991713;28;20498;-56
2023/01/09 01:44:25;;;;;;;21.83;9.05;;;;;;;;;;4994082;28;20065;-58
2023/01/09 01:46:51;;;;;;;19.65;8.60;;;;;;;;;;4993415;28;20037;-56
2023/01/09 01:49:19;;;;;;;20.88;9.57;;;;;;;;;;4988745;28;20390;-57
2023/01/09 01:51:45;;;;;;;21.42;9.38;;;;;;;;;;4993958;28;20103;-57
2023/01/09 01:54:17;;;;;;;19.77;9.38;;;;;;;;;;4993457;28;20045;-57
2023/01/09 01:56:44;;;;;;;20.70;9.07;;;;;;;;;;4989978;28;20037;-56
2023/01/09 01:59:09;;;;;;;;;;;;;;;;;;4995448;28;20022;-58
2023/01/09 02:01:39;;;;;;;20.23;8.50;;;;;;;;;;4991332;28;19914;-56
2023/01/09 02:04:04;;;;;;;19.50;8.73;;;;;;;;;;4990277;28;20383;-56
2023/01/09 02:06:31;;;;;;;17.97;8.43;;;;;;;;;;4994652;28;20026;-57
2023/01/09 02:08:56;;;;;;;18.40;8.32;;;;;;;;;;4996230;28;20026;-56
2023/01/09 02:11:21;;;;;;;19.90;8.77;;;;;;;;;;4996807;28;20563;-58
2023/01/09 02:13:46;;;;;;;19.53;8.33;;;;;;;;;;5006747;28;20017;-58
2023/01/09 02:16:25;;;;;;;17.85;8.32;;;;;;;;;;4985044;28;20019;-55
2023/01/09 02:19:00;;;;;;;18.13;8.27;;;;;;;;;;4999924;28;20018;-57
2023/01/09 02:21:38;;;;;;;17.63;8.63;;;;;;;;;;4992248;28;20115;-55
2023/01/09 02:24:08;;;;;;;20.38;8.45;;;;;;;;;;4990975;28;20090;-57
2023/01/09 02:26:51;;;;;;;17.92;8.40;;;;;;;;;;4994002;28;20022;-59
2023/01/09 02:29:43;;;;;;;19.90;8.60;;;;;;;;;;4988778;28;20690;-57
2023/01/09 02:32:18;;;;;;;18.55;9.27;;;;;;;;;;4988707;28;20321;-55
2023/01/09 02:34:50;;;;;;;19.58;8.65;;;;;;;;;;5000401;28;20507;-56
2023/01/09 02:37:31;;;;;;;18.83;8.50;;;;;;;;;;4995972;28;20153;-58
2023/01/09 02:40:03;;;;;;;16.95;8.20;;;;;;;;;;4988902;28;20065;-59
2023/01/09 02:42:28;;;;;;;;;;;;;;;;;;4999361;28;20025;-55
2023/01/09 02:44:54;;;;;;;19.58;8.38;;;;;;;;;;4999972;28;19917;-56
2023/01/09 02:47:22;;;;;;;18.58;7.90;;;;;;;;;;5009708;28;20052;-56
2023/01/09 02:49:52;;;;;;;19.95;8.70;;;;;;;;;;4989764;28;20022;-57
2023/01/09 02:52:29;;;;;;;17.58;8.75;;;;;;;;;;5006635;28;20049;-57
2023/01/09 02:55:13;;;;;;;17.50;8.48;;;;;;;;;;4998812;28;20053;-54
2023/01/09 02:58:03;;;;;;;20.08;9.00;;;;;;;;;;4996236;28;20121;-56
2023/01/09 03:00:47;;;;;;;20.55;9.30;;;;;;;;;;4987991;28;20041;-56
2023/01/09 03:03:26;;;;;;;21.60;9.07;;;;;;;;;;4998785;28;20113;-56
2023/01/09 03:06:03;;;;;;;19.75;8.43;;;;;;;;;;4987313;28;20037;-56
2023/01/09 03:08:35;;;;;;;18.40;8.20;;;;;;;;;;4992485;28;20018;-59
2023/01/09 03:11:03;;;;;;;19.15;8.80;;;;;;;;;;4996329;28;20101;-56
2023/01/09 03:13:31;;;;;;;19.33;8.68;;;;;;;;;;5004710;28;20021;-57
2023/01/09 03:15:58;;;;;;;17.65;8.48;;;;;;;;;;4994706;28;20537;-56
2023/01/09 03:18:25;;;;;;;21.38;9.55;;;;;;;;;;4989980;28;20034;-57
2023/01/09 03:20:52;;;;;;;21.63;9.43;;;;;;;;;;4993075;28;20015;-56
2023/01/09 03:23:17;;;;;;;22.33;9.40;;;;;;;;;;4991125;28;20022;-55
2023/01/09 03:25:42;;;;;;;20.10;9.50;;;;;;;;;;4990528;28;20137;-57
2023/01/09 03:28:11;;;;;;;20.42;9.43;;;;;;;;;;4989465;28;20022;-56
2023/01/09 03:30:37;;;;;;;21.67;9.95;;;;;;;;;;4992210;28;20022;-58
2023/01/09 03:33:02;;;;;;;21.93;8.80;;;;;;;;;;4998584;28;20045;-56
2023/01/09 03:35:27;;;;;;;23.93;10.80;;;;;;;;;;5000914;28;20030;-56
2023/01/09 03:37:52;;;;;;;22.27;9.93;;;;;;;;;;4990242;28;20528;-57
2023/01/09 03:40:18;;;;;;;25.47;10.77;;;;;;;;;;4976002;28;20022;-56
2023/01/09 03:42:43;;;;;;;23.60;10.85;;;;;;;;;;4996850;28;20072;-57
2023/01/09 03:45:08;;;;;;;25.08;10.70;;;;;;;;;;5002564;28;20515;-59
2023/01/09 03:47:34;;;;;;;25.67;10.83;;;;;;;;;;5009883;28;20050;-58
2023/01/09 03:49:59;;;;;;;29.37;11.57;;;;;;;;;;5009646;28;20535;-57
2023/01/09 03:52:24;;;;;;;22.33;10.50;;;;;;;;;;5011385;28;21068;-58
2023/01/09 03:54:49;;;;;;;24.52;10.13;;;;;;;;;;5005070;28;20026;-58
2023/01/09 03:57:14;;;;;;;23.55;9.95;;;;;;;;;;4999569;28;20062;-57
2023/01/09 03:59:39;;;;;;;20.38;10.68;;;;;;;;;;4996413;28;20396;-60
2023/01/09 04:02:05;;;;;;;24.13;10.47;;;;;;;;;;4995246;28;20030;-59
2023/01/09 04:04:30;;;;;;;21.27;10.00;;;;;;;;;;4994801;28;20035;-56
2023/01/09 04:06:55;;;;;;;24.13;11.10;;;;;;;;;;4996840;28;20018;-58
2023/01/09 04:09:20;;;;;;;27.17;11.88;;;;;;;;;;5010643;28;20049;-57
2023/01/09 04:11:45;;;;;;;23.83;10.17;;;;;;;;;;4993108;28;20025;-57
2023/01/09 04:14:10;;;;;;;25.45;10.98;;;;;;;;;;4992115;28;20026;-57
2023/01/09 04:16:35;;;;;;;25.20;10.80;;;;;;;;;;4983467;28;20089;-58
2023/01/09 04:19:01;;;;;;;24.83;10.60;;;;;;;;;;4989300;28;20026;-56
2023/01/09 04:21:26;;;;;;;22.52;10.88;;;;;;;;;;4988628;28;20360;-56
2023/01/09 04:23:51;;;;;;;21.37;9.87;;;;;;;;;;4988756;28;20022;-55
2023/01/09 04:26:16;;;;;;;21.58;10.13;;;;;;;;;;4988592;28;20518;-55
2023/01/09 04:28:41;;;;;;;26.03;10.73;;;;;;;;;;4994535;28;20023;-57
2023/01/09 04:31:07;;;;;;;20.63;9.97;;;;;;;;;;4987874;28;20541;-58
2023/01/09 04:33:32;;;;;;;25.88;10.70;;;;;;;;;;4997390;28;20496;-56
2023/01/09 04:35:57;;;;;;;22.40;10.40;;;;;;;;;;4997617;28;20118;-58
2023/01/09 04:38:23;;;;;;;20.45;9.82;;;;;;;;;;5000230;28;20598;-56
2023/01/09 04:40:48;;;;;;;22.87;9.77;;;;;;;;;;4993484;28;20018;-57
2023/01/09 04:43:14;;;;;;;22.77;9.73;;;;;;;;;;4991832;28;20030;-56
2023/01/09 04:45:39;;;;;;;23.25;9.68;;;;;;;;;;4997253;28;20038;-57
2023/01/09 04:48:04;;;;;;;22.00;9.77;;;;;;;;;;5000351;28;20025;-57
2023/01/09 04:50:29;;;;;;;21.13;9.27;;;;;;;;;;4997759;28;20049;-56
2023/01/09 04:52:55;;;;;;;19.98;9.10;;;;;;;;;;4997835;28;20072;-56
2023/01/09 04:55:21;;;;;;;21.45;9.48;;;;;;;;;;4992249;28;20041;-57
2023/01/09 04:57:46;;;;;;;20.13;9.32;;;;;;;;;;4991806;28;20025;-56
2023/01/09 05:00:11;;;;;;;21.00;9.25;;;;;;;;;;4979025;28;20050;-56
2023/01/09 05:02:37;;;;;;;21.85;9.60;;;;;;;;;;4988208;28;20042;-56
2023/01/09 05:05:03;;;;;;;23.38;9.65;;;;;;;;;;4996862;28;20035;-59
2023/01/09 05:07:28;;;;;;;19.80;8.85;;;;;;;;;;4995524;28;20022;-58
2023/01/09 05:09:53;;;;;;;18.63;8.70;;;;;;;;;;4987836;28;20022;-56
2023/01/09 05:12:19;;;;;;;19.93;8.93;;;;;;;;;;4990994;28;20038;-59
2023/01/09 05:14:44;;;;;;;20.20;8.82;;;;;;;;;;4990991;28;20050;-56
2023/01/09 05:17:09;;;;;;;19.00;8.87;;;;;;;;;;4987789;28;20050;-57
2023/01/09 05:19:34;;;;;;;20.20;9.20;;;;;;;;;;4990741;28;20085;-57
2023/01/09 05:21:59;;;;;;;22.50;9.57;;;;;;;;;;4988271;28;20383;-57
2023/01/09 05:24:24;;;;;;;19.57;8.77;;;;;;;;;;4986583;28;20034;-56
2023/01/09 05:26:50;;;;;;;18.83;9.23;;;;;;;;;;4984826;28;20030;-57
2023/01/09 05:29:15;;;;;;;20.83;8.88;;;;;;;;;;4992122;28;20031;-56
2023/01/09 05:31:40;;;;;;;20.00;8.60;;;;;;;;;;5024562;23;20129;-57
2023/01/09 05:34:05;;;;;;;20.17;8.50;;;;;;;;;;5030087;28;20032;-57
2023/01/09 05:36:30;;;;;;;18.90;8.37;;;;;;;;;;5029977;28;20025;-59
2023/01/09 05:38:56;;;;;;;17.60;8.37;;;;;;;;;;5029814;28;20052;-55
2023/01/09 05:41:22;;;;;;;16.35;7.63;;;;;;;;;;5011199;28;20053;-57
2023/01/09 05:43:47;;;;;;;22.03;8.17;;;;;;;;;;5005115;28;20061;-61
2023/01/09 05:46:12;;;;;;;18.50;8.05;;;;;;;;;;5008416;28;20581;-60
2023/01/09 05:48:37;;;;;;;18.90;8.52;;;;;;;;;;5004269;28;20105;-58
2023/01/09 05:51:02;;;;;;;19.98;9.18;;;;;;;;;;5004114;28;20029;-54
2023/01/09 05:53:27;;;;;;;20.20;8.63;;;;;;;;;;5009669;28;20360;-59
2023/01/09 05:55:52;;;;;;;19.80;8.48;;;;;;;;;;5005340;28;20014;-53
2023/01/09 05:58:18;;;;;;;16.85;7.85;;;;;;;;;;5008934;28;20037;-56
2023/01/09 06:00:43;;;;;;;18.27;8.10;;;;;;;;;;5010474;28;20657;-51
2023/01/09 06:03:08;;;;;;;17.25;8.10;;;;;;;;;;5012045;28;20068;-49
2023/01/09 06:05:33;;;;;;;17.08;7.22;;;;;;;;;;5008849;28;20060;-49
2023/01/09 06:07:58;;;;;;;19.03;8.30;;;;;;;;;;5005348;28;20424;-50
2023/01/09 06:10:24;;;;;;;17.47;7.83;;;;;;;;;;5010665;28;20021;-49
2023/01/09 06:12:49;;;;;;;20.20;8.57;;;;;;;;;;5011570;28;20022;-49
2023/01/09 06:15:15;;;;;;;18.17;7.93;;;;;;;;;;5009859;28;20029;-49
2023/01/09 06:17:40;;;;;;;17.27;7.82;;;;;;;;;;5012409;28;20018;-49
2023/01/09 06:20:06;;;;;;;17.77;7.95;;;;;;;;;;5013876;28;20065;-48
2023/01/09 06:22:31;;;;;;;15.05;7.53;;;;;;;;;;5012850;28;20089;-49
2023/01/09 06:24:56;;;;;;;16.17;7.28;;;;;;;;;;5013271;28;20036;-49
2023/01/09 06:27:21;;;;;;;17.08;8.13;;;;;;;;;;5030000;28;20486;-50
2023/01/09 06:29:47;;;;;;;15.95;7.30;;;;;;;;;;5017065;28;20026;-54
2023/01/09 06:32:12;;;;;;;14.98;7.05;;;;;;;;;;5016709;28;20061;-51
2023/01/09 06:34:37;;;;;;;17.40;7.53;;;;;;;;;;5015428;28;20414;-55
2023/01/09 06:37:02;;;;;;;13.27;6.47;;;;;;;;;;5016660;28;20041;-50
2023/01/09 06:39:27;;;;;;;16.45;6.57;;;;;;;;;;5013942;28;20037;-58
2023/01/09 06:41:52;;;;;;;14.27;6.75;;;;;;;;;;5012187;28;20392;-52
2023/01/09 06:44:17;;;;;;;14.35;5.68;;;;;;;;;;5006646;28;20124;-60
2023/01/09 06:46:43;;;;;;;14.30;6.30;;;;;;;;;;5006670;28;20042;-52
2023/01/09 06:49:08;;;;;;;14.40;6.88;;;;;;;;;;5011143;28;20088;-51
2023/01/09 06:51:33;;;;;;;14.82;7.45;;;;;;;;;;5008980;28;20056;-51
2023/01/09 06:53:59;;;;;;;18.27;7.90;;;;;;;;;;5004368;28;20026;-54
2023/01/09 06:56:24;;;;;;;17.50;8.13;;;;;;;;;;5012459;28;20060;-53
2023/01/09 06:58:49;;;;;;;18.25;8.02;;;;;;;;;;5012527;28;20439;-55
2023/01/09 07:01:14;;;;;;;16.23;7.53;;;;;;;;;;5006776;28;20057;-51
2023/01/09 07:03:39;;;;;;;15.33;7.67;;;;;;;;;;5012804;28;20463;-59
2023/01/09 07:06:05;;;;;;;16.15;8.02;;;;;;;;;;5011603;28;20491;-52
2023/01/09 07:08:31;;;;;;;15.63;7.93;;;;;;;;;;5002111;28;20014;-50
2023/01/09 07:10:56;;;;;;;17.50;8.55;;;;;;;;;;4994280;28;20052;-58
2023/01/09 07:13:21;;;;;;;16.33;6.97;;;;;;;;;;5006663;28;20025;-63
2023/01/09 07:15:48;;;;;;;14.77;7.22;;;;;;;;;;5010905;28;20310;-56
2023/01/09 07:18:13;;;;;;;18.00;8.10;;;;;;;;;;5011500;28;20022;-51
2023/01/09 07:20:40;;;;;;;16.08;7.68;;;;;;;;;;5012904;28;20075;-57
2023/01/09 07:23:05;;;;;;;16.13;7.35;;;;;;;;;;5013386;28;20021;-51
2023/01/09 07:25:30;;;;;;;17.47;8.00;;;;;;;;;;5013179;28;20386;-51
2023/01/09 07:27:55;;;;;;;14.98;6.88;;;;;;;;;;5012372;28;20029;-52
2023/01/09 07:30:20;;;;;;;15.55;7.40;;;;;;;;;;5013121;28;20021;-50
2023/01/09 07:32:46;;;;;;;14.33;7.10;;;;;;;;;;5010201;28;20123;-53
2023/01/09 07:35:11;;;;;;;16.98;7.75;;;;;;;;;;5012329;28;20022;-50
2023/01/09 07:37:36;;;;;;;17.40;7.67;;;;;;;;;;5012401;28;20028;-57
2023/01/09 07:40:02;;;;;;;15.73;7.47;;;;;;;;;;5012733;28;20033;-50
2023/01/09 07:42:27;;;;;;;16.33;7.65;;;;;;;;;;5010011;28;20017;-51
2023/01/09 07:44:52;;;;;;;17.55;8.35;;;;;;;;;;5006085;28;20041;-57
2023/01/09 07:47:17;;;;;;;16.60;8.00;;;;;;;;;;5006313;28;20710;-63
2023/01/09 07:49:43;;;;;;;15.33;7.43;;;;;;;;;;5009361;28;20109;-55
2023/01/09 07:52:08;;;;;;;18.20;8.43;;;;;;;;;;4999984;28;20076;-50
2023/01/09 07:54:33;;;;;;;15.90;8.13;;;;;;;;;;5011994;28;20419;-51
2023/01/09 07:56:58;;;;;;;17.48;8.02;;;;;;;;;;5011897;28;20060;-51
2023/01/09 07:59:23;;;;;;;18.77;8.07;;;;;;;;;;5012238;28;20026;-51
2023/01/09 08:01:49;;;;;;;16.02;7.68;;;;;;;;;;5012010;28;20121;-51
2023/01/09 08:04:14;;;;;;;17.20;7.87;;;;;;;;;;5010203;28;20439;-50
2023/01/09 08:06:39;;;;;;;17.55;8.55;;;;;;;;;;5010668;28;20057;-51
2023/01/09 08:09:04;;;;;;;21.02;8.23;;;;;;;;;;5012155;28;20014;-51
2023/01/09 08:11:31;;;;;;;15.83;7.63;;;;;;;;;;5012531;28;20102;-52
2023/01/09 08:13:56;;;;;;;18.42;8.30;;;;;;;;;;5011910;28;20024;-65
2023/01/09 08:16:21;;;;;;;15.60;7.90;;;;;;;;;;5011739;28;20022;-56
2023/01/09 08:18:46;;;;;;;19.70;8.55;;;;;;;;;;5005356;28;20434;-52
2023/01/09 08:21:12;;;;;;;19.03;8.63;;;;;;;;;;5011454;28;20088;-58
2023/01/09 08:23:37;;;;;;;17.85;8.18;;;;;;;;;;5011651;28;20501;-58
2023/01/09 08:26:03;;;;;;;17.38;8.15;;;;;;;;;;4993104;28;20030;-52
2023/01/09 08:28:28;;;;;;;16.40;7.72;;;;;;;;;;4991917;28;20434;-57
2023/01/09 08:30:53;;;;;;;16.80;7.72;;;;;;;;;;5003956;28;20025;-51
2023/01/09 08:33:18;;;;;;;15.80;7.43;;;;;;;;;;5010664;28;20057;-57
2023/01/09 08:35:43;;;;;;;17.27;7.83;;;;;;;;;;5011053;28;20022;-51
2023/01/09 08:38:09;;;;;;;16.63;7.87;;;;;;;;;;5011781;28;20024;-58
2023/01/09 08:40:34;;;;;;;15.38;7.13;;;;;;;;;;5001277;28;20546;-51
2023/01/09 08:48:27;;;;;;;;;;;;;;;;;;5012012;28;20045;-57
2023/01/09 08:50:53;;;;;;;14.50;7.10;;;;;;;;;;5011279;28;19906;-50
2023/01/09 08:53:18;;;;;;;14.73;7.32;;;;;;;;;;5011599;28;20132;-57
2023/01/09 08:55:43;;;;;;;13.70;6.63;;;;;;;;;;5011035;28;20046;-50
2023/01/09 08:58:08;;;;;;;13.55;6.88;;;;;;;;;;5010053;28;20029;-56
2023/01/09 09:00:33;;;;;;;13.60;6.17;;;;;;;;;;5011372;28;20010;-51
2023/01/09 09:02:59;;;;;;;14.60;6.03;;;;;;;;;;5010920;28;20028;-57
2023/01/09 09:05:26;;;;;;;13.90;6.03;;;;;;;;;;5010788;28;20037;-51
2023/01/09 09:07:54;;;;;;;13.68;5.82;;;;;;;;;;5011369;28;20064;-56
2023/01/09 09:10:20;;;;;;;9.48;4.57;;;;;;;;;;5011086;28;20018;-50
2023/01/09 09:12:49;;;;;;;12.13;5.55;;;;;;;;;;5010064;28;20017;-53
2023/01/09 09:15:33;;;;;;;10.88;5.40;;;;;;;;;;5010129;28;20033;-51
2023/01/09 09:18:02;;;;;;;11.15;5.30;;;;;;;;;;5010902;28;20034;-54
2023/01/09 09:20:29;;;;;;;12.57;5.63;;;;;;;;;;5010860;28;20026;-51
2023/01/09 09:22:54;;;;;;;11.52;5.45;;;;;;;;;;5011003;28;20018;-55
2023/01/09 09:25:19;;;;;;;9.85;4.88;;;;;;;;;;5010501;28;20096;-59
2023/01/09 09:27:44;;;;;;;9.73;4.10;;;;;;;;;;5010961;28;20486;-57
2023/01/09 09:30:10;;;;;;;9.45;4.55;;;;;;;;;;5006018;28;20026;-50
2023/01/09 09:32:36;;;;;;;9.45;4.60;;;;;;;;;;5010364;28;20105;-68
2023/01/09 09:35:01;;;;;;;10.15;4.50;;;;;;;;;;5010907;28;20021;-53
2023/01/09 09:37:27;;;;;;;9.07;3.70;;;;;;;;;;5010604;28;20030;-50
2023/01/09 09:39:52;;;;;;;5.57;2.00;;;;;;;;;;5010733;28;20057;-53
2023/01/09 09:45:31;;;;;;;4.40;1.52;;;;;;;;;;5010255;28;20125;-51
2023/01/09 09:48:08;;;;;;;3.08;1.08;;;;;;;;;;5010791;28;20022;-55
2023/01/09 09:50:42;;;;;;;3.33;1.10;;;;;;;;;;5010978;28;20018;-50
2023/01/09 09:53:25;;;;;;;3.70;1.30;;;;;;;;;;5010962;28;20026;-51
2023/01/09 09:55:50;;;;;;;3.10;1.02;;;;;;;;;;5010321;28;20103;-51
2023/01/09 09:58:21;;;;;;;2.92;1.02;;;;;;;;;;5009460;28;20061;-54
2023/01/09 10:00:48;;;;;;;3.20;1.10;;;;;;;;;;5004176;28;20022;-50
2023/01/09 10:03:30;;;;;;;3.60;1.50;;;;;;;;;;5010470;28;20018;-51
2023/01/09 10:05:56;;;;;;;3.05;1.23;;;;;;;;;;5010079;28;20414;-50
2023/01/09 10:08:40;;;;;;;3.33;1.20;;;;;;;;;;5010651;28;20109;-50
2023/01/09 10:11:11;;;;;;;3.40;1.10;;;;;;;;;;5010083;28;20101;-50
2023/01/09 10:16:55;;;;;;;3.28;1.20;;;;;;;;;;5009759;28;20075;-55
2023/01/09 10:19:39;;;;;;;3.80;1.20;;;;;;;;;;4915590;29;20020;-56
2023/01/09 10:22:22;;;;;;;4.65;1.20;;;;;;;;;;5005383;28;20033;-51
2023/01/09 10:24:50;;;;;;;3.25;1.30;;;;;;;;;;5012416;28;20121;-53
2023/01/09 10:27:28;;;;;;;3.35;1.20;;;;;;;;;;5011782;28;20113;-65
2023/01/09 10:29:59;;;;;;;3.47;1.23;;;;;;;;;;5013535;28;20471;-50
2023/01/09 10:32:24;;;;;;;3.72;1.23;;;;;;;;;;5006461;28;20030;-51
2023/01/09 10:34:55;;;;;;;4.30;1.13;;;;;;;;;;5013744;28;20029;-50
2023/01/09 10:37:23;;;;;;;3.20;1.20;;;;;;;;;;5013546;28;20029;-52
2023/01/09 10:39:53;;;;;;;3.03;1.00;;;;;;;;;;5013586;28;20114;-52
2023/01/09 10:42:29;;;;;;;2.95;0.95;;;;;;;;;;5012037;28;20348;-53
2023/01/09 10:45:13;;;;;;;2.75;1.05;;;;;;;;;;5013306;28;20034;-51
2023/01/09 10:47:39;;;;;;;4.68;1.30;;;;;;;;;;5013429;28;20073;-52
2023/01/09 10:50:21;;;;;;;4.20;1.08;;;;;;;;;;5012943;28;20097;-51
2023/01/09 10:52:48;;;;;;;3.30;1.00;;;;;;;;;;5013449;28;20018;-50
2023/01/09 10:55:34;;;;;;;2.95;0.98;;;;;;;;;;5013119;28;20022;-49
2023/01/09 10:58:09;;;;;;;2.90;0.85;;;;;;;;;;5012339;28;20018;-55
2023/01/09 11:00:34;;;;;;;2.85;0.80;;;;;;;;;;4993927;28;20101;-51
2023/01/09 11:02:59;;;;;;;2.13;0.70;;;;;;;;;;4994004;28;20105;-51
2023/01/09 11:05:26;;;;;;;3.17;0.73;;;;;;;;;;4997934;28;20033;-53
2023/01/09 11:07:57;;;;;;;3.45;1.00;;;;;;;;;;5013056;28;20029;-50
2023/01/09 11:10:22;;;;;;;2.50;0.75;;;;;;;;;;5013642;28;20029;-49
2023/01/09 11:12:47;;;;;;;2.67;0.80;;;;;;;;;;5013419;28;20398;-51
2023/01/09 11:15:15;;;;;;;2.07;0.70;;;;;;;;;;5012960;28;20091;-49
2023/01/09 11:17:41;;;;;;;2.58;0.60;;;;;;;;;;5012667;28;20026;-52
2023/01/09 11:20:16;;;;;;;3.00;0.70;;;;;;;;;;5010330;28;20084;-51
2023/01/09 11:22:42;;;;;;;2.75;0.82;;;;;;;;;;5011432;28;20475;-51
2023/01/09 11:25:11;;;;;;;3.50;0.80;;;;;;;;;;5012556;28;20136;-51
2023/01/09 11:27:36;;;;;;;3.28;0.93;;;;;;;;;;5011156;28;20030;-60
2023/01/09 11:30:07;;;;;;;2.13;0.63;;;;;;;;;;5007166;28;20030;-50
2023/01/09 11:32:33;;;;;;;2.40;0.68;;;;;;;;;;5004935;28;20029;-56
2023/01/09 11:34:58;;;;;;;3.13;0.70;;;;;;;;;;5012529;28;20486;-51
2023/01/09 11:37:27;;;;;;;1.97;0.70;;;;;;;;;;5012590;28;20383;-56
2023/01/09 11:39:53;;;;;;;2.33;0.70;;;;;;;;;;5006492;28;20017;-50
2023/01/09 11:42:50;;;;;;;2.00;0.77;;;;;;;;;;5012454;28;20053;-51
2023/01/09 11:45:20;;;;;;;6.10;1.40;;;;;;;;;;5011039;28;20390;-54
2023/01/09 11:47:45;;;;;;;2.33;0.60;;;;;;;;;;5012551;28;20030;-51
2023/01/09 11:50:18;;;;;;;2.97;0.50;;;;;;;;;;5012461;28;20419;-57
2023/01/09 11:52:43;;;;;;;2.33;0.65;;;;;;;;;;5011799;28;20022;-55
2023/01/09 11:55:10;;;;;;;3.17;0.60;;;;;;;;;;5011711;28;20020;-51
2023/01/09 11:57:36;;;;;;;1.77;0.50;;;;;;;;;;5011831;28;20129;-51
2023/01/09 12:00:03;;;;;;;1.77;0.50;;;;;;;;;;5009704;28;20105;-57
2023/01/09 12:02:28;;;;;;;3.47;0.60;;;;;;;;;;5010969;28;20084;-51
2023/01/09 12:04:55;;;;;;;1.87;0.50;;;;;;;;;;5004441;28;20384;-56
2023/01/09 12:07:20;;;;;;;;;;;;;;;;;;4998731;28;20019;-53
2023/01/09 12:09:53;;;;;;;1.48;0.40;;;;;;;;;;4992715;28;19996;-51
2023/01/09 12:12:37;;;;;;;2.58;0.55;;;;;;;;;;4992454;28;20383;-52
2023/01/09 12:15:02;;;;;;;3.03;0.50;;;;;;;;;;5011271;28;20025;-53
2023/01/09 12:17:42;;;;;;;1.90;0.50;;;;;;;;;;5011750;28;20029;-51
2023/01/09 12:20:18;;;;;;;0.90;0.30;;;;;;;;;;5011772;28;20026;-51
2023/01/09 12:22:56;;;;;;;1.95;0.60;;;;;;;;;;5012114;28;20030;-53
2023/01/09 12:25:43;;;;;;;2.65;0.47;;;;;;;;;;5009584;28;20516;-57
2023/01/09 12:28:14;;;;;;;1.65;0.50;;;;;;;;;;5012332;28;20041;-54
2023/01/09 12:30:51;;;;;;;2.33;0.60;;;;;;;;;;5011467;28;20014;-51
2023/01/09 12:33:25;;;;;;;2.13;0.52;;;;;;;;;;5011821;28;20026;-53
2023/01/09 12:36:08;;;;;;;2.00;0.50;;;;;;;;;;5011300;28;20018;-50
2023/01/09 12:38:40;;;;;;;2.47;0.40;;;;;;;;;;5010043;28;20495;-50
2023/01/09 12:41:24;;;;;;;2.85;0.50;;;;;;;;;;5011292;28;20535;-51
2023/01/09 12:44:19;;;;;;;2.25;0.60;;;;;;;;;;5011846;28;20412;-53
2023/01/09 12:47:03;;;;;;;1.45;0.40;;;;;;;;;;5011410;28;20033;-50
2023/01/09 12:49:33;;;;;;;3.17;0.60;;;;;;;;;;5011798;28;20026;-50
2023/01/09 12:52:08;;;;;;;2.78;0.50;;;;;;;;;;5011753;28;20476;-49
2023/01/09 12:54:38;;;;;;;4.13;0.50;;;;;;;;;;5011283;28;20018;-56
2023/01/09 12:57:08;;;;;;;2.83;0.50;;;;;;;;;;5003173;28;20120;-57
2023/01/09 12:59:36;;;;;;;1.50;0.60;;;;;;;;;;4993166;28;20014;-49
2023/01/09 13:02:08;;;;;;;2.67;0.50;;;;;;;;;;4998099;28;20033;-50
2023/01/09 13:04:33;;;;;;;;;;;;;;;;;;5011393;28;20129;-51
2023/01/09 13:07:04;;;;;;;2.42;0.60;;;;;;;;;;5010699;28;20004;-53
2023/01/09 13:09:41;;;;;;;1.98;0.40;;;;;;;;;;5010540;28;20542;-52
2023/01/09 13:12:11;;;;;;;2.00;0.40;;;;;;;;;;5008351;28;20026;-50
2023/01/09 13:14:39;;;;;;;2.67;0.40;;;;;;;;;;5010255;28;20136;-65
2023/01/09 13:17:06;;;;;;;2.60;0.60;;;;;;;;;;5010621;28;20553;-51
2023/01/09 13:19:36;;;;;;;3.92;0.85;;;;;;;;;;5010962;28;20612;-50
2023/01/09 13:22:02;;;;;;;2.30;0.50;;;;;;;;;;5010971;28;20071;-50
2023/01/09 13:24:51;;;;;;;1.80;0.50;;;;;;;;;;5009512;28;20029;-51
2023/01/09 13:27:18;;;;;;;1.98;0.57;;;;;;;;;;4996880;28;20045;-67
2023/01/09 13:29:45;;;;;;;2.38;0.47;;;;;;;;;;5009681;28;20029;-52
2023/01/09 13:32:19;;;;;;;1.73;0.35;;;;;;;;;;5008600;28;20384;-51
2023/01/09 13:34:45;;;;;;;2.35;0.52;;;;;;;;;;5010373;28;20379;-51
2023/01/09 13:37:19;;;;;;;1.98;0.50;;;;;;;;;;5009319;28;20022;-51
2023/01/09 13:39:53;;;;;;;1.13;0.40;;;;;;;;;;5010723;28;20665;-51
2023/01/09 13:42:38;;;;;;;1.73;0.43;;;;;;;;;;5001453;28;20033;-51
2023/01/09 13:45:15;;;;;;;2.05;0.47;;;;;;;;;;5010217;28;20390;-55
2023/01/09 13:47:41;;;;;;;3.63;0.60;;;;;;;;;;5010284;28;20018;-50
2023/01/09 13:50:07;;;;;;;2.20;0.60;;;;;;;;;;5012416;28;20022;-55
2023/01/09 13:52:40;;;;;;;1.83;0.50;;;;;;;;;;5013411;28;20486;-51
2023/01/09 13:55:13;;;;;;;2.03;0.55;;;;;;;;;;5013992;28;20038;-55
2023/01/09 13:57:45;;;;;;;1.58;0.50;;;;;;;;;;5014289;28;20041;-56
2023/01/09 14:00:10;;;;;;;3.25;0.60;;;;;;;;;;5014183;28;20026;-55
2023/01/09 14:02:39;;;;;;;2.40;0.67;;;;;;;;;;5014387;28;20061;-50
2023/01/09 14:05:08;;;;;;;1.60;0.47;;;;;;;;;;5011830;28;20069;-55
2023/01/09 14:07:34;;;;;;;2.88;0.70;;;;;;;;;;5013935;28;20352;-54
2023/01/09 14:10:01;;;;;;;2.35;0.60;;;;;;;;;;5014183;28;20025;-54
2023/01/09 14:12:27;;;;;;;2.38;0.70;;;;;;;;;;5014410;28;20093;-50
2023/01/09 14:14:54;;;;;;;2.75;0.60;;;;;;;;;;5014097;28;20014;-51
2023/01/09 14:17:29;;;;;;;2.63;0.55;;;;;;;;;;5013975;28;20026;-50
2023/01/09 14:19:58;;;;;;;1.90;0.50;;;;;;;;;;5014311;28;20064;-50
2023/01/09 14:22:24;;;;;;;2.20;0.60;;;;;;;;;;5011894;28;20062;-52
2023/01/09 14:24:51;;;;;;;1.58;0.40;;;;;;;;;;5013592;28;20033;-53
2023/01/09 14:27:35;;;;;;;1.75;0.50;;;;;;;;;;5014005;28;20018;-49
2023/01/09 14:30:19;;;;;;;1.52;0.52;;;;;;;;;;5008825;28;20471;-49
2023/01/09 14:32:44;;;;;;;3.10;0.60;;;;;;;;;;5012257;28;20021;-51
2023/01/09 14:35:12;;;;;;;1.73;0.50;;;;;;;;;;5017038;28;20468;-50
2023/01/09 14:37:37;;;;;;;2.63;0.70;;;;;;;;;;5014509;28;20459;-48
2023/01/09 14:40:05;;;;;;;3.43;0.60;;;;;;;;;;5013687;28;20064;-50
2023/01/09 14:42:30;;;;;;;4.03;0.63;;;;;;;;;;5013640;28;20514;-49
2023/01/09 14:45:00;;;;;;;2.45;0.70;;;;;;;;;;5013479;28;20034;-49
2023/01/09 14:47:38;;;;;;;1.88;0.50;;;;;;;;;;5012739;28;20022;-49
2023/01/09 14:50:21;;;;;;;4.22;0.70;;;;;;;;;;5024207;28;20443;-49
2023/01/09 14:52:48;;;;;;;3.00;0.73;;;;;;;;;;5033890;28;20021;-50
2023/01/09 14:55:36;;;;;;;1.42;0.60;;;;;;;;;;5033675;28;20028;-50
2023/01/09 14:58:21;;;;;;;2.97;0.40;;;;;;;;;;5022581;28;20075;-49